Nearby METAR Reports

 

KSYN - Stanton, Minnesota, USA
Distance from station: NW 20mi, 33km
Updated: Sun, 24-Jun-2018 7:55am CDT
Overcast
Overcast
 Wind from calm
Wind: Calm
Temperature: 68°F , 20°C
Dew Point: 64°F , 18°C
Humidity: 88%
Barometer: 29.90 inHg , 1012.5 hPa
Clouds: Overcast
Visibility: 10 miles , 16 km
Cloud details: Overcast 8000 ft
2018/06/24 12:55 KSYN 241255Z AUTO 00000KT 10SM OVC080 20/18 A2990 RMK AO2 T02000176
KTOB - Dodge Center, Minnesota, USA
Distance from station: SSW 21mi, 34km
Updated: Sun, 24-Jun-2018 7:55am CDT
Mostly cloudy
Mostly cloudy
 Wind from SSE
Wind: SSE 3 mph , 6 km/h
Temperature: 68°F , 20°C
Dew Point: 63°F , 17°C
Humidity: 83%
Barometer: 29.92 inHg , 1013.2 hPa
Clouds: Mostly cloudy
Visibility: 10 miles , 16 km
Cloud details: Mostly cloudy 7500 ft
2018/06/24 12:55 KTOB 241255Z AUTO 16003KT 10SM BKN075 20/17 A2992 RMK AO2
K9MN - St Mary Hospital, Minnesota, USA
Distance from station: SSE 22mi, 35km
Updated: Sun, 24-Jun-2018 7:55am CDT
Clear
Clear
 Wind from E
Wind: E 3 mph , 6 km/h
Temperature: 66°F , 19°C
Dew Point: 64°F , 18°C
Humidity: 94%
Barometer: 29.92 inHg , 1013.2 hPa
Clouds: Clear
Visibility: 10 miles , 16 km
2018/06/24 12:55 K9MN 241255Z AUTO 10003KT 10SM CLR 19/18 A2992 RMK AO1 T01870178
 
KRGK - Red Wing, Minnesota, USA
Distance from station: NNE 22mi, 35km
Updated: Sun, 24-Jun-2018 7:55am CDT
Clear
Clear
 Wind from calm
Wind: Calm
Temperature: 70°F , 21°C
Dew Point: 68°F , 20°C
Humidity: 94%
Barometer: 29.89 inHg , 1012.2 hPa
Clouds: Clear
Visibility: 10 miles , 16 km
2018/06/24 12:55 KRGK 241255Z AUTO 00000KT 10SM CLR 21/20 A2989 RMK AO2
KRST - Rochester, Minnesota, USA
Distance from station: SSE 29mi, 47km
Updated: Sun, 24-Jun-2018 7:54am CDT
Clear
Clear
 Wind from SE
Wind: SE 3 mph , 6 km/h
Temperature: 68°F , 20°C
Dew Point: 64°F , 18°C
Humidity: 88%
Barometer: 29.92 inHg , 1013.2 hPa
Clouds: Clear
Visibility: 10 miles , 16 km
2018/06/24 12:54 KRST 241254Z 14003KT 10SM CLR 20/18 A2992 RMK AO2 SLP126 T02000178
KOWA - Owatonna, Minnesota, USA
Distance from station: WSW 31mi, 50km
Updated: Sun, 24-Jun-2018 7:53am CDT
Partly cloudy
Partly cloudy
 Wind from SSE
Wind: SSE 5 mph , 7 km/h
Temperature: 66°F , 19°C
Dew Point: 63°F , 17°C
Humidity: 88%
Barometer: 29.91 inHg , 1012.9 hPa
Clouds: Partly cloudy
Visibility: 10 miles , 16 km
Cloud details: Partly cloudy 8000 ft
2018/06/24 12:53 KOWA 241253Z AUTO 16004KT 10SM SCT080 19/17 A2991 RMK AO2
 
KFBL - Faribault Muni, Minnesota, USA
Distance from station: W 32mi, 51km
Updated: Sun, 24-Jun-2018 7:55am CDT
Partly cloudy
Partly cloudy
 Wind from calm
Wind: Calm
Temperature: 68°F , 20°C
Dew Point: 63°F , 17°C
Humidity: 83%
Barometer: 29.91 inHg , 1012.9 hPa
Clouds: Partly cloudy
Visibility: 10 miles , 16 km
Cloud details: Partly cloudy 7500 ft
2018/06/24 12:55 KFBL 241255Z AUTO 00000KT 10SM SCT075 20/17 A2991 RMK AO2
KSGS - South St Paul, Minnesota, USA
Distance from station: NNW 43mi, 69km
Updated: Sun, 24-Jun-2018 7:55am CDT
Mostly cloudy
Mostly cloudy
 Wind from calm
Wind: Calm
Temperature: 72°F , 22°C
Dew Point: 64°F , 18°C
Humidity: 78%
Barometer: 29.90 inHg , 1012.5 hPa
Clouds: Mostly cloudy
Visibility: 10 miles , 16 km
Cloud details: Mostly cloudy 9000 ft
2018/06/24 12:55 KSGS 241255Z AUTO 00000KT 10SM BKN090 22/18 A2990 RMK AO2 T02160179
KAUM - Austin Muni, Minnesota, USA
Distance from station: SSW 46mi, 73km
Updated: Sun, 24-Jun-2018 7:55am CDT
Clear
Clear
 Wind from calm
Wind: Calm
Temperature: 66°F , 19°C
Dew Point: 63°F , 17°C
Humidity: 88%
Barometer: 29.91 inHg , 1012.9 hPa
Clouds: Clear
Visibility: 10 miles , 16 km
2018/06/24 12:55 KAUM 241255Z AUTO 00000KT 10SM CLR 19/17 A2991 RMK AO2
 
KACQ - Waseca, Minnesota, USA
Distance from station: WSW 46mi, 75km
Updated: Sun, 24-Jun-2018 7:55am CDT
Partly cloudy
Partly cloudy
 Wind from SE
Wind: SE 6 mph , 9 km/h
Temperature: 68°F , 20°C
Dew Point: 63°F , 17°C
Humidity: 83%
Barometer: 29.91 inHg , 1012.9 hPa
Clouds: Partly cloudy
Visibility: 10 miles , 16 km
Cloud details: Partly cloudy 7500 ft
Partly cloudy 12000 ft
2018/06/24 12:55 KACQ 241255Z AUTO 13005KT 10SM SCT075 SCT120 20/17 A2991 RMK AO2
KSTP - St. Paul, Minnesota, USA
Distance from station: NNW 47mi, 76km
Updated: Sun, 24-Jun-2018 7:53am CDT
Mostly cloudy
Mostly cloudy
 Wind from calm
Wind: Calm
Temperature: 70°F , 21°C
Dew Point: 63°F , 17°C
Humidity: 78%
Barometer: 29.90 inHg , 1012.5 hPa
Clouds: Mostly cloudy
Visibility: 9 miles , 14 km
Cloud details: Mostly cloudy 9000 ft
2018/06/24 12:53 KSTP 241253Z 00000KT 9SM BKN090 21/17 A2990 RMK AO2 SLP118 T02110172
KMSP - Minneapolis, Minnesota, USA
Distance from station: NW 49mi, 78km
Updated: Sun, 24-Jun-2018 7:53am CDT
Mostly cloudy
Mostly cloudy
 Wind from ENE
Wind: ENE 5 mph , 7 km/h
Temperature: 72°F , 22°C
Dew Point: 64°F , 18°C
Humidity: 78%
Barometer: 29.89 inHg , 1012.2 hPa
Clouds: Mostly cloudy
Visibility: 10 miles , 16 km
Cloud details: Partly cloudy 9000 ft
Mostly cloudy 30000 ft
2018/06/24 12:53 KMSP 241253Z 07004KT 10SM SCT090 BKN300 22/18 A2989 RMK AO2 SLP116 T02220178 $